Main page
METAR-TAF:

METAR-TAF

Airports :

London Southend Airport

London-Southend, England

latitude: 51-34N, longitude: 000-42E, elevation: 15 m

Current weather observation

The report was made 12 minutes ago, at 21:20 UTC
Wind 6 kt from the East/Northeast, varying between North and East
Temperature 10°C
Humidity 93%
Pressure 1020 hPa
Visibility: 2000 m
Overcast at a height of 200 ft
mist

METAR: EGMC 202120Z 06006KT 010V080 2000 BR OVC002 10/09 Q1020

Time: 22:32 (21:32 UTC)

Forecast

The report was made 1 hour and 36 minutes ago, at 19:56 UTC
Forecast valid from 20 at 21 UTC to 21 at 06 UTC
Wind 8 kt from the East
Visibility: 3000 m
Broken clouds at a height of 500 ft
mist
Temporary
from 20 at 21 UTC to 21 at 06 UTC
Visibility: 1200 m
Broken clouds at a height of 200 ft
Probability 30% :
Temporary
from 21 at 01 UTC to 21 at 03 UTC
Visibility: 0300 m
Broken clouds at a height of 100 ft
fog

TAF: EGMC 201956Z 2021/2106 08008KT 3000 BR BKN005 TEMPO 2021/2106 1200 BKN002 PROB30 TEMPO 2101/2103 0300 FG BKN001

Weather observations and forecasts of more than 4000 airports (METAR and TAF reports).

The available stations are represented by yellow and red dots on the map.

Hover mouse over dot to see the name of the station.

Then click to see weather observations and forecasts.

To change the map : click on the green buttons with a black cross to zoom in, on the green button with a dash to zoom out, or on the green arrows for adjacent maps.


METAR-TAF: